createdAt,value
2022-09-09T00:02:29.203Z,0.98
2022-09-09T00:05:20.969Z,0.70
2022-09-09T00:07:53.710Z,0.93
2022-09-09T00:10:43.139Z,0.98
2022-09-09T00:13:25.667Z,0.80
2022-09-09T00:16:18.487Z,0.70
2022-09-09T00:19:05.650Z,0.90
2022-09-09T00:21:40.278Z,0.60
2022-09-09T00:24:42.938Z,0.90
2022-09-09T00:27:41.370Z,0.90
2022-09-09T00:30:28.463Z,1.10
2022-09-09T00:33:02.701Z,1.00
2022-09-09T00:35:40.758Z,1.00
2022-09-09T00:38:20.402Z,0.80
2022-09-09T00:41:08.646Z,0.85
2022-09-09T00:43:39.497Z,0.98
2022-09-09T00:46:24.829Z,0.85
2022-09-09T00:49:10.459Z,1.10
2022-09-09T00:51:58.365Z,1.00
2022-09-09T00:55:17.309Z,0.70
2022-09-09T00:57:47.278Z,0.95
2022-09-09T01:00:42.617Z,0.70
2022-09-09T01:03:12.640Z,0.80
2022-09-09T01:05:55.029Z,0.70
2022-09-09T01:08:22.613Z,0.57
2022-09-09T01:10:55.407Z,0.80
2022-09-09T01:13:32.715Z,0.85
2022-09-09T01:16:03.603Z,1.40
2022-09-09T01:18:38.352Z,0.70
2022-09-09T01:21:22.887Z,0.82
2022-09-09T01:24:15.141Z,0.80
2022-09-09T01:26:47.159Z,0.82
2022-09-09T01:29:18.472Z,1.00
2022-09-09T01:32:22.330Z,0.80
2022-09-09T01:34:51.260Z,0.80
2022-09-09T01:37:18.510Z,0.65
2022-09-09T01:39:46.376Z,0.80
2022-09-09T01:42:17.230Z,0.75
2022-09-09T01:44:44.501Z,0.90
2022-09-09T01:47:12.222Z,0.90
2022-09-09T01:49:39.453Z,0.83
2022-09-09T01:52:07.117Z,1.20
2022-09-09T01:54:35.679Z,1.30
2022-09-09T02:00:14.346Z,1.10
2022-09-09T02:02:53.409Z,1.10
2022-09-09T02:05:41.268Z,1.83
2022-09-09T02:08:16.787Z,1.00
2022-09-09T02:10:56.320Z,1.00
2022-09-09T02:13:24.127Z,1.55
2022-09-09T02:16:02.478Z,1.13
2022-09-09T02:21:04.343Z,0.90
2022-09-09T02:23:34.849Z,0.93
2022-09-09T02:26:05.087Z,1.10
2022-09-09T02:28:35.532Z,0.82
2022-09-09T02:31:03.209Z,1.30
2022-09-09T02:33:46.503Z,1.00
2022-09-09T02:36:17.351Z,1.13
2022-09-09T02:38:54.120Z,1.23
2022-09-09T02:41:32.923Z,1.00
2022-09-09T02:44:00.682Z,1.17
2022-09-09T02:47:08.510Z,1.27
2022-09-09T02:50:14.016Z,1.10
2022-09-09T02:53:08.662Z,1.40
2022-09-09T02:55:47.822Z,1.40
2022-09-09T02:58:18.787Z,1.33
2022-09-09T03:00:51.720Z,1.20
2022-09-09T03:03:20.811Z,1.20
2022-09-09T03:05:48.086Z,1.42
2022-09-09T03:08:15.378Z,1.40
2022-09-09T03:10:42.825Z,1.10
2022-09-09T03:13:10.149Z,1.30
2022-09-09T03:15:38.332Z,1.60
2022-09-09T03:18:05.600Z,1.35
2022-09-09T03:20:33.180Z,1.40
2022-09-09T03:23:01.795Z,1.50
2022-09-09T03:25:29.732Z,1.67
2022-09-09T03:27:57.465Z,1.45
2022-09-09T03:30:27.702Z,1.75
2022-09-09T03:32:56.254Z,1.40
2022-09-09T03:35:23.918Z,1.58
2022-09-09T03:37:51.294Z,1.40
2022-09-09T03:40:19.202Z,1.30
2022-09-09T03:42:46.548Z,1.58
2022-09-09T03:45:13.745Z,1.45
2022-09-09T03:47:41.172Z,1.75
2022-09-09T03:50:11.415Z,1.50
2022-09-09T03:52:41.973Z,1.40
2022-09-09T03:55:09.848Z,1.23
2022-09-09T03:57:37.397Z,1.33
2022-09-09T04:00:07.163Z,1.40
2022-09-09T04:02:35.755Z,1.55
2022-09-09T04:05:03.106Z,1.48
2022-09-09T04:07:30.337Z,1.50
2022-09-09T04:09:58.209Z,1.40
2022-09-09T04:12:25.484Z,1.25
2022-09-09T04:14:52.684Z,1.60
2022-09-09T04:17:19.868Z,1.52
2022-09-09T04:19:47.644Z,1.30
2022-09-09T04:22:17.180Z,1.52
2022-09-09T04:24:48.524Z,1.25
2022-09-09T04:27:17.170Z,1.70
2022-09-09T04:29:44.359Z,1.30
2022-09-09T04:32:11.929Z,1.20
2022-09-09T04:34:39.183Z,1.80
2022-09-09T04:37:06.458Z,1.10
2022-09-09T04:39:33.760Z,1.40
2022-09-09T04:42:01.064Z,1.27
2022-09-09T04:44:28.297Z,1.25
2022-09-09T04:46:55.481Z,1.15
2022-09-09T04:49:22.851Z,1.40
2022-09-09T04:51:53.974Z,1.45
2022-09-09T04:54:21.259Z,1.40
2022-09-09T04:56:48.500Z,1.73
2022-09-09T04:59:15.996Z,1.40
2022-09-09T05:01:43.702Z,1.67
2022-09-09T05:04:11.359Z,1.50
2022-09-09T05:06:38.669Z,1.38
2022-09-09T05:09:05.930Z,1.90
2022-09-09T05:11:37.745Z,1.83
2022-09-09T05:14:06.174Z,1.50
2022-09-09T05:16:35.237Z,1.40
2022-09-09T05:19:04.252Z,1.38
2022-09-09T05:21:32.458Z,1.20
2022-09-09T05:24:01.683Z,1.30
2022-09-09T05:26:30.526Z,1.75
2022-09-09T05:28:58.072Z,1.35
2022-09-09T05:31:27.654Z,1.30
2022-09-09T05:33:56.692Z,1.50
2022-09-09T05:36:24.638Z,1.70
2022-09-09T05:38:54.818Z,1.33
2022-09-09T05:41:26.413Z,1.77
2022-09-09T05:43:53.845Z,1.77
2022-09-09T05:46:25.096Z,1.30
2022-09-09T05:48:54.497Z,1.10
2022-09-09T05:51:29.180Z,1.30
2022-09-09T05:53:59.489Z,1.38
2022-09-09T05:56:29.633Z,1.25
2022-09-09T05:58:57.529Z,1.05
2022-09-09T06:01:32.169Z,1.00
2022-09-09T06:04:01.169Z,0.90
2022-09-09T06:06:37.625Z,1.13
2022-09-09T06:09:10.521Z,0.95
2022-09-09T06:11:41.077Z,0.90
2022-09-09T06:14:09.454Z,1.30
2022-09-09T06:16:38.902Z,0.82
2022-09-09T06:19:06.284Z,0.82
2022-09-09T06:21:39.767Z,0.80
2022-09-09T06:24:08.591Z,0.93
2022-09-09T06:26:43.615Z,0.90
2022-09-09T06:29:11.309Z,0.90
2022-09-09T06:31:39.309Z,1.00
2022-09-09T06:34:09.426Z,1.02
2022-09-09T06:36:39.971Z,0.85
2022-09-09T06:39:14.722Z,0.80
2022-09-09T06:41:43.606Z,1.25
2022-09-09T06:44:13.017Z,0.50
2022-09-09T06:46:40.853Z,0.90
2022-09-09T06:49:10.716Z,1.60
2022-09-09T06:51:44.043Z,0.65
2022-09-09T06:54:13.317Z,1.00
2022-09-09T06:56:44.258Z,0.70
2022-09-09T06:59:13.380Z,1.02
2022-09-09T07:01:50.304Z,0.80
2022-09-09T07:04:20.081Z,0.80
2022-09-09T07:06:47.785Z,0.80
2022-09-09T07:09:17.406Z,0.77
2022-09-09T07:11:49.630Z,1.10
2022-09-09T07:14:18.867Z,1.40
2022-09-09T07:16:47.761Z,0.90
2022-09-09T07:19:17.134Z,0.82
2022-09-09T07:21:44.944Z,0.60
2022-09-09T07:24:13.843Z,0.90
2022-09-09T07:26:41.793Z,1.00
2022-09-09T07:29:10.161Z,1.13
2022-09-09T07:31:41.107Z,1.10
2022-09-09T07:34:09.156Z,0.90
2022-09-09T07:36:41.069Z,0.90
2022-09-09T07:39:12.136Z,0.98
2022-09-09T07:41:45.083Z,0.80
2022-09-09T07:44:23.213Z,1.52
2022-09-09T07:46:51.102Z,1.27
2022-09-09T07:49:24.410Z,1.15
2022-09-09T07:51:55.378Z,1.50
2022-09-09T07:54:24.699Z,1.20
2022-09-09T07:56:53.082Z,0.90
2022-09-09T07:59:21.782Z,1.20
2022-09-09T08:01:55.806Z,1.27
2022-09-09T08:04:26.261Z,1.25
2022-09-09T08:07:02.447Z,1.20
2022-09-09T08:09:30.887Z,2.03
2022-09-09T08:11:59.235Z,1.70
2022-09-09T08:16:55.508Z,0.90
2022-09-09T08:19:22.959Z,1.20
2022-09-09T08:21:50.681Z,1.02
2022-09-09T08:24:20.658Z,1.23
2022-09-09T08:26:50.351Z,1.20
2022-09-09T08:29:18.431Z,1.30
2022-09-09T08:31:52.229Z,0.93
2022-09-09T08:34:21.089Z,0.98
2022-09-09T08:36:50.283Z,1.10
2022-09-09T08:39:22.272Z,1.02
2022-09-09T08:42:36.604Z,1.30
2022-09-09T08:45:21.053Z,0.90
2022-09-09T08:48:39.288Z,1.42
2022-09-09T08:51:09.828Z,0.73
2022-09-09T08:53:47.484Z,2.05
2022-09-09T08:56:23.679Z,1.83
2022-09-09T08:58:58.165Z,1.40
2022-09-09T09:01:34.027Z,1.33
2022-09-09T09:04:42.697Z,1.25
2022-09-09T09:07:26.070Z,1.20
2022-09-09T09:10:40.437Z,2.03
2022-09-09T09:13:22.711Z,0.77
2022-09-09T09:16:01.940Z,1.95
2022-09-09T09:18:29.387Z,1.10
2022-09-09T09:21:34.622Z,1.30
2022-09-09T09:24:06.951Z,1.13
2022-09-09T09:26:38.390Z,0.60
2022-09-09T09:29:20.183Z,0.75
2022-09-09T09:31:58.142Z,0.80
2022-09-09T09:34:26.155Z,0.77
2022-09-09T09:37:12.515Z,0.50
2022-09-09T09:42:28.622Z,0.80
2022-09-09T09:44:56.894Z,0.60
2022-09-09T09:47:25.166Z,0.70
2022-09-09T09:52:31.605Z,0.93
2022-09-09T09:55:07.586Z,0.73
2022-09-09T09:57:36.714Z,0.80
2022-09-09T10:00:24.179Z,0.60
2022-09-09T10:02:53.744Z,0.73
2022-09-09T10:05:36.270Z,0.52
2022-09-09T10:08:12.084Z,0.30
2022-09-09T10:10:58.626Z,0.40
2022-09-09T10:13:38.457Z,0.40
2022-09-09T10:16:33.993Z,0.47
2022-09-09T10:19:07.666Z,0.50
2022-09-09T10:22:16.373Z,0.60
2022-09-09T10:24:58.985Z,0.50
2022-09-09T10:27:58.928Z,1.80
2022-09-09T10:31:25.500Z,0.65
2022-09-09T10:34:03.907Z,0.50
2022-09-09T10:36:31.262Z,0.40
2022-09-09T10:39:10.316Z,0.50
2022-09-09T10:41:41.544Z,0.80
2022-09-09T10:44:31.269Z,0.77
2022-09-09T10:47:43.994Z,0.52
2022-09-09T10:51:00.417Z,0.60
2022-09-09T10:53:40.823Z,0.40
2022-09-09T10:56:17.455Z,0.60
2022-09-09T10:59:18.164Z,0.60
2022-09-09T11:02:08.533Z,0.65
2022-09-09T11:04:51.568Z,0.30
2022-09-09T11:08:03.480Z,0.70
2022-09-09T11:11:01.544Z,0.50
2022-09-09T11:13:57.460Z,0.70
2022-09-09T11:16:55.258Z,0.50
2022-09-09T11:19:49.097Z,0.68
2022-09-09T11:22:39.785Z,0.50
2022-09-09T11:25:20.948Z,0.32
2022-09-09T11:28:45.926Z,0.60
2022-09-09T11:31:44.129Z,0.47
2022-09-09T11:34:33.116Z,0.40
2022-09-09T11:37:24.758Z,0.40
2022-09-09T11:40:18.997Z,0.63
2022-09-09T11:42:50.882Z,0.80
2022-09-09T11:45:29.735Z,0.77
2022-09-09T11:48:01.949Z,0.63
2022-09-09T11:50:37.685Z,0.60
2022-09-09T11:53:24.050Z,0.50
2022-09-09T11:56:16.797Z,1.90
2022-09-09T11:58:56.733Z,0.90
2022-09-09T12:01:40.759Z,1.25
2022-09-09T12:04:26.663Z,0.60
2022-09-09T12:07:12.331Z,1.60
2022-09-09T12:09:53.803Z,0.70
2022-09-09T12:12:32.735Z,0.40
2022-09-09T12:15:04.848Z,0.80
2022-09-09T12:17:43.632Z,0.60
2022-09-09T12:20:39.977Z,0.60
2022-09-09T12:23:31.142Z,0.70
2022-09-09T12:26:41.594Z,0.70
2022-09-09T12:29:47.062Z,0.43
2022-09-09T12:32:21.343Z,0.43
2022-09-09T12:35:17.608Z,0.85
2022-09-09T12:37:59.859Z,0.63
2022-09-09T12:40:36.193Z,0.50
2022-09-09T12:43:20.775Z,0.68
2022-09-09T12:45:51.532Z,0.55
2022-09-09T12:48:22.745Z,0.77
2022-09-09T12:50:54.216Z,0.47
2022-09-09T12:53:39.973Z,0.50
2022-09-09T12:56:21.003Z,0.80
2022-09-09T12:58:52.717Z,0.47
2022-09-09T13:01:30.879Z,0.47
2022-09-09T13:03:59.307Z,0.60
2022-09-09T13:06:29.468Z,0.82
2022-09-09T13:09:00.981Z,0.50
2022-09-09T13:11:39.355Z,0.50
2022-09-09T13:14:07.587Z,0.60
2022-09-09T13:16:42.516Z,1.50
2022-09-09T13:19:16.992Z,2.92
2022-09-09T13:21:44.949Z,0.40
2022-09-09T13:24:35.997Z,0.60
2022-09-09T13:27:30.589Z,1.00
2022-09-09T13:29:58.070Z,1.10
2022-09-09T13:32:28.107Z,0.88
2022-09-09T13:34:57.912Z,0.70
2022-09-09T13:37:35.852Z,0.80
2022-09-09T13:40:07.336Z,0.50
2022-09-09T13:42:43.748Z,0.50
2022-09-09T13:45:24.451Z,0.30
2022-09-09T13:47:53.778Z,0.50
2022-09-09T13:50:31.149Z,0.65
2022-09-09T13:53:00.661Z,0.50
2022-09-09T13:55:30.829Z,0.50
2022-09-09T13:58:02.235Z,0.57
2022-09-09T14:00:36.030Z,0.50
2022-09-09T14:03:03.748Z,0.50
2022-09-09T14:05:34.853Z,0.45
2022-09-09T14:08:05.715Z,0.55
2022-09-09T14:10:32.961Z,0.47
2022-09-09T14:13:00.262Z,0.60
2022-09-09T14:15:28.511Z,0.30
2022-09-09T14:17:56.055Z,0.50
2022-09-09T14:20:23.327Z,0.40
2022-09-09T14:22:50.736Z,0.45
2022-09-09T14:25:18.317Z,0.50
2022-09-09T14:27:47.000Z,0.70
2022-09-09T14:30:14.465Z,0.40
2022-09-09T14:32:41.661Z,0.40
2022-09-09T14:35:09.481Z,0.43
2022-09-09T14:37:36.889Z,0.73
2022-09-09T14:40:04.580Z,0.68
2022-09-09T14:42:31.828Z,4.80
2022-09-09T14:44:59.062Z,1.63
2022-09-09T14:47:39.356Z,0.47
2022-09-09T14:50:10.274Z,0.50
2022-09-09T14:52:39.287Z,0.38
2022-09-09T14:55:08.385Z,0.77
2022-09-09T14:57:36.781Z,0.50
2022-09-09T15:00:10.615Z,0.53
2022-09-09T15:02:38.098Z,0.60
2022-09-09T15:05:06.308Z,0.82
2022-09-09T15:07:33.555Z,0.80
2022-09-09T15:10:00.891Z,1.43
2022-09-09T15:12:29.389Z,0.73
2022-09-09T15:14:56.870Z,0.80
2022-09-09T15:17:28.212Z,0.70
2022-09-09T15:19:56.024Z,0.63
2022-09-09T15:22:23.654Z,0.70
2022-09-09T15:24:51.471Z,0.70
2022-09-09T15:27:19.106Z,0.80
2022-09-09T15:29:47.878Z,0.60
2022-09-09T15:32:15.074Z,0.70
2022-09-09T15:34:43.021Z,0.82
2022-09-09T15:37:14.170Z,0.63
2022-09-09T15:39:42.037Z,0.77
2022-09-09T15:42:09.515Z,0.93
2022-09-09T15:44:43.346Z,0.70
2022-09-09T15:47:14.396Z,0.90
2022-09-09T15:49:41.705Z,0.90
2022-09-09T15:52:12.187Z,0.80
2022-09-09T15:54:40.166Z,1.00
2022-09-09T15:57:13.330Z,1.03
2022-09-09T15:59:41.291Z,0.60
2022-09-09T16:02:10.781Z,0.70
2022-09-09T16:04:39.542Z,0.55
2022-09-09T16:07:07.129Z,0.80
2022-09-09T16:09:36.221Z,0.90
2022-09-09T16:12:12.852Z,0.70
2022-09-09T16:14:40.210Z,0.85
2022-09-09T16:17:08.482Z,0.60
2022-09-09T16:19:36.257Z,1.00
2022-09-09T16:22:05.539Z,0.73
2022-09-09T16:24:33.552Z,0.80
2022-09-09T16:27:01.055Z,1.38
2022-09-09T16:29:28.563Z,1.10
2022-09-09T16:32:00.043Z,1.05
2022-09-09T16:34:31.094Z,1.00
2022-09-09T16:36:58.364Z,1.13
2022-09-09T16:39:28.406Z,1.35
2022-09-09T16:41:58.309Z,1.17
2022-09-09T16:44:27.241Z,1.03
2022-09-09T16:47:00.495Z,1.05
2022-09-09T16:49:29.573Z,2.28
2022-09-09T16:52:00.173Z,1.27
2022-09-09T16:54:28.223Z,0.90
2022-09-09T16:56:56.089Z,0.80
2022-09-09T16:59:24.461Z,0.75
2022-09-09T17:01:53.146Z,1.10
2022-09-09T17:04:26.441Z,0.95
2022-09-09T17:07:01.516Z,1.00
2022-09-09T17:09:30.583Z,1.05
2022-09-09T17:11:58.614Z,1.05
2022-09-09T17:14:27.163Z,0.90
2022-09-09T17:16:54.580Z,0.90
2022-09-09T17:19:21.754Z,1.00
2022-09-09T17:22:16.846Z,0.85
2022-09-09T17:24:39.653Z,1.20
2022-09-09T17:27:08.276Z,0.60
2022-09-09T17:29:37.479Z,0.95
2022-09-09T17:32:08.191Z,1.00
2022-09-09T17:34:36.847Z,1.50
2022-09-09T17:37:06.228Z,0.90
2022-09-09T17:39:34.455Z,1.45
2022-09-09T17:42:02.415Z,1.00
2022-09-09T17:44:29.944Z,0.80
2022-09-09T17:46:57.234Z,0.77
2022-09-09T17:49:24.741Z,0.80
2022-09-09T17:51:52.841Z,0.73
2022-09-09T17:54:24.121Z,0.85
2022-09-09T17:56:51.826Z,0.93
2022-09-09T17:59:19.738Z,0.52
2022-09-09T18:01:51.937Z,0.70
2022-09-09T18:04:20.489Z,0.80
2022-09-09T18:06:51.411Z,0.60
2022-09-09T18:09:23.637Z,0.67
2022-09-09T18:11:56.403Z,0.80
2022-09-09T18:14:34.045Z,0.93
2022-09-09T18:17:04.155Z,1.00
2022-09-09T18:19:33.189Z,0.98
2022-09-09T18:22:02.685Z,1.10
2022-09-09T18:24:31.847Z,1.10
2022-09-09T18:26:59.694Z,1.20
2022-09-09T18:29:27.005Z,0.87
2022-09-09T18:31:56.109Z,1.10
2022-09-09T18:34:28.870Z,1.42
2022-09-09T18:36:57.176Z,1.98
2022-09-09T18:39:30.178Z,1.20
2022-09-09T18:42:01.815Z,1.23
2022-09-09T18:44:34.530Z,1.10
2022-09-09T18:47:03.572Z,1.27
2022-09-09T18:49:31.434Z,1.05
2022-09-09T18:51:59.365Z,1.30
2022-09-09T18:54:34.309Z,0.98
2022-09-09T18:57:01.976Z,0.85
2022-09-09T18:59:30.971Z,0.80
2022-09-09T19:01:58.462Z,1.00
2022-09-09T19:04:27.482Z,1.00
2022-09-09T19:06:59.487Z,0.70
2022-09-09T19:09:32.475Z,0.82
2022-09-09T19:12:03.346Z,0.77
2022-09-09T19:14:30.977Z,1.08
2022-09-09T19:16:58.842Z,1.53
2022-09-09T19:19:30.259Z,1.20
2022-09-09T19:21:58.131Z,1.10
2022-09-09T19:24:30.324Z,1.10
2022-09-09T19:27:05.913Z,1.00
2022-09-09T19:29:36.845Z,1.10
2022-09-09T19:33:13.080Z,1.30
2022-09-09T19:34:52.688Z,1.40
2022-09-09T19:37:20.681Z,1.63
2022-09-09T19:39:49.862Z,1.50
2022-09-09T19:42:17.236Z,1.73
2022-09-09T19:44:44.639Z,1.30
2022-09-09T19:47:14.419Z,1.40
2022-09-09T19:49:46.177Z,1.43
2022-09-09T19:52:15.981Z,1.40
2022-09-09T19:54:44.091Z,1.67
2022-09-09T19:57:11.742Z,1.30
2022-09-09T20:00:08.490Z,1.40
2022-09-09T20:02:35.990Z,1.83
2022-09-09T20:05:03.528Z,1.27
2022-09-09T20:07:31.622Z,1.40
2022-09-09T20:09:58.905Z,1.40
2022-09-09T20:12:26.156Z,1.50
2022-09-09T20:14:54.815Z,1.38
2022-09-09T20:17:23.767Z,1.65
2022-09-09T20:19:50.968Z,1.20
2022-09-09T20:22:18.221Z,1.77
2022-09-09T20:24:45.464Z,1.75
2022-09-09T20:27:12.939Z,1.60
2022-09-09T20:29:40.290Z,1.80
2022-09-09T20:32:09.476Z,1.67
2022-09-09T20:34:36.770Z,1.60
2022-09-09T20:37:06.032Z,1.70
2022-09-09T20:39:33.585Z,1.65
2022-09-09T20:42:03.111Z,1.70
2022-09-09T20:45:16.200Z,2.13
2022-09-09T20:47:43.419Z,1.50
2022-09-09T20:50:10.617Z,1.70
2022-09-09T20:52:38.015Z,1.98
2022-09-09T20:55:07.531Z,1.92
2022-09-09T20:57:36.385Z,1.70
2022-09-09T21:00:06.429Z,1.60
2022-09-09T21:02:33.785Z,2.00
2022-09-09T21:05:01.650Z,1.85
2022-09-09T21:07:29.211Z,2.10
2022-09-09T21:09:57.589Z,1.67
2022-09-09T21:12:25.420Z,1.85
2022-09-09T21:14:52.749Z,1.80
2022-09-09T21:17:20.048Z,2.05
2022-09-09T21:19:47.407Z,2.10
2022-09-09T21:22:14.782Z,2.03
2022-09-09T21:24:45.863Z,1.92
2022-09-09T21:27:13.766Z,1.90
2022-09-09T21:29:40.960Z,2.13
2022-09-09T21:32:08.169Z,2.30
2022-09-09T21:34:35.680Z,1.88
2022-09-09T21:37:02.948Z,2.20
2022-09-09T21:39:30.155Z,2.30
2022-09-09T21:41:59.033Z,2.13
2022-09-09T21:44:26.821Z,2.08
2022-09-09T21:46:54.054Z,1.55
2022-09-09T21:49:21.539Z,1.67
2022-09-09T21:51:48.951Z,1.20
2022-09-09T21:54:16.186Z,1.55
2022-09-09T21:56:43.433Z,1.48
2022-09-09T21:59:12.169Z,1.52
2022-09-09T22:01:41.425Z,1.40
2022-09-09T22:04:08.733Z,1.20
2022-09-09T22:06:35.964Z,1.40
2022-09-09T22:09:04.605Z,1.23
2022-09-09T22:11:31.841Z,1.10
2022-09-09T22:13:59.127Z,1.48
2022-09-09T22:16:32.651Z,1.52
2022-09-09T22:19:10.709Z,1.52
2022-09-09T22:21:38.117Z,1.52
2022-09-09T22:24:08.890Z,1.20
2022-09-09T22:26:37.819Z,0.95
2022-09-09T22:29:06.817Z,1.38
2022-09-09T22:31:36.104Z,0.98
2022-09-09T22:34:04.747Z,1.02
2022-09-09T22:36:32.015Z,0.80
2022-09-09T22:38:59.432Z,0.70
2022-09-09T22:41:26.661Z,0.70
2022-09-09T22:44:05.439Z,0.70
2022-09-09T22:46:32.803Z,0.70
2022-09-09T22:49:03.323Z,0.65
2022-09-09T22:51:30.883Z,0.80
2022-09-09T22:53:58.051Z,0.80
2022-09-09T22:56:25.301Z,0.80
2022-09-09T22:58:57.375Z,0.70
2022-09-09T23:01:27.110Z,0.82
2022-09-09T23:04:02.713Z,0.80
2022-09-09T23:06:31.791Z,0.70
2022-09-09T23:09:02.763Z,0.82
2022-09-09T23:11:37.063Z,0.80
2022-09-09T23:14:09.231Z,0.80
2022-09-09T23:16:45.460Z,1.00
2022-09-09T23:19:16.654Z,1.13
2022-09-09T23:21:46.279Z,1.00
2022-09-09T23:24:17.664Z,1.00
2022-09-09T23:26:45.666Z,0.90
2022-09-09T23:29:14.677Z,1.10
2022-09-09T23:31:45.611Z,1.38
2022-09-09T23:34:13.982Z,1.17
2022-09-09T23:36:41.753Z,1.27
2022-09-09T23:39:10.852Z,1.33
2022-09-09T23:41:38.950Z,1.67
2022-09-09T23:44:07.508Z,1.38
2022-09-09T23:46:35.529Z,1.43
2022-09-09T23:49:04.985Z,1.40
2022-09-09T23:51:34.007Z,1.10
2022-09-09T23:54:04.853Z,1.40
2022-09-09T23:56:39.261Z,1.60
2022-09-09T23:59:08.502Z,1.50
